sensor_id;sensor_type;location;lat;lon;timestamp;P1;durP1;ratioP1;P2;durP2;ratioP2
10586;SDS011;5341;47.606;7.576;2023-01-09T00:00:10;4.43;;;4.03;;
10586;SDS011;5341;47.606;7.576;2023-01-09T00:02:39;4.32;;;3.90;;
10586;SDS011;5341;47.606;7.576;2023-01-09T00:05:09;3.97;;;3.58;;
10586;SDS011;5341;47.606;7.576;2023-01-09T00:07:39;4.32;;;3.92;;
10586;SDS011;5341;47.606;7.576;2023-01-09T00:10:09;4.45;;;4.05;;
10586;SDS011;5341;47.606;7.576;2023-01-09T00:12:37;4.57;;;4.10;;
10586;SDS011;5341;47.606;7.576;2023-01-09T00:15:08;3.95;;;3.55;;
10586;SDS011;5341;47.606;7.576;2023-01-09T00:17:36;4.72;;;3.92;;
10586;SDS011;5341;47.606;7.576;2023-01-09T00:20:05;5.05;;;3.90;;
10586;SDS011;5341;47.606;7.576;2023-01-09T00:22:35;4.50;;;3.55;;
10586;SDS011;5341;47.606;7.576;2023-01-09T00:25:04;4.53;;;3.75;;
10586;SDS011;5341;47.606;7.576;2023-01-09T00:27:32;3.85;;;2.92;;
10586;SDS011;5341;47.606;7.576;2023-01-09T00:30:01;3.25;;;2.50;;
10586;SDS011;5341;47.606;7.576;2023-01-09T00:32:30;2.90;;;2.10;;
10586;SDS011;5341;47.606;7.576;2023-01-09T00:35:01;3.47;;;2.28;;
10586;SDS011;5341;47.606;7.576;2023-01-09T00:37:30;1.88;;;1.70;;
10586;SDS011;5341;47.606;7.576;2023-01-09T00:39:58;1.73;;;1.50;;
10586;SDS011;5341;47.606;7.576;2023-01-09T00:42:29;2.13;;;1.40;;
10586;SDS011;5341;47.606;7.576;2023-01-09T00:45:02;1.35;;;1.17;;
10586;SDS011;5341;47.606;7.576;2023-01-09T00:47:37;2.05;;;1.17;;
10586;SDS011;5341;47.606;7.576;2023-01-09T00:50:11;1.55;;;1.30;;
10586;SDS011;5341;47.606;7.576;2023-01-09T00:52:43;1.88;;;1.10;;
10586;SDS011;5341;47.606;7.576;2023-01-09T00:55:13;1.70;;;1.00;;
10586;SDS011;5341;47.606;7.576;2023-01-09T00:57:42;1.67;;;1.20;;
10586;SDS011;5341;47.606;7.576;2023-01-09T01:00:10;2.08;;;1.10;;
10586;SDS011;5341;47.606;7.576;2023-01-09T01:02:43;1.95;;;1.05;;
10586;SDS011;5341;47.606;7.576;2023-01-09T01:05:11;2.42;;;1.10;;
10586;SDS011;5341;47.606;7.576;2023-01-09T01:07:57;1.33;;;1.00;;
10586;SDS011;5341;47.606;7.576;2023-01-09T01:10:27;1.95;;;1.10;;
10586;SDS011;5341;47.606;7.576;2023-01-09T01:12:56;1.73;;;1.15;;
10586;SDS011;5341;47.606;7.576;2023-01-09T01:15:25;1.10;;;1.00;;
10586;SDS011;5341;47.606;7.576;2023-01-09T01:17:56;4.38;;;1.00;;
10586;SDS011;5341;47.606;7.576;2023-01-09T01:20:26;1.67;;;1.02;;
10586;SDS011;5341;47.606;7.576;2023-01-09T01:22:56;1.50;;;1.00;;
10586;SDS011;5341;47.606;7.576;2023-01-09T01:25:24;1.65;;;0.93;;
10586;SDS011;5341;47.606;7.576;2023-01-09T01:27:53;2.28;;;0.93;;
10586;SDS011;5341;47.606;7.576;2023-01-09T01:30:21;2.13;;;0.90;;
10586;SDS011;5341;47.606;7.576;2023-01-09T01:32:49;2.83;;;1.05;;
10586;SDS011;5341;47.606;7.576;2023-01-09T01:35:18;2.63;;;1.20;;
10586;SDS011;5341;47.606;7.576;2023-01-09T01:37:46;5.15;;;0.90;;
10586;SDS011;5341;47.606;7.576;2023-01-09T01:40:15;2.00;;;0.95;;
10586;SDS011;5341;47.606;7.576;2023-01-09T01:42:46;2.58;;;0.75;;
10586;SDS011;5341;47.606;7.576;2023-01-09T01:45:14;0.60;;;0.60;;
10586;SDS011;5341;47.606;7.576;2023-01-09T01:47:48;0.82;;;0.82;;
10586;SDS011;5341;47.606;7.576;2023-01-09T01:50:23;0.93;;;0.73;;
10586;SDS011;5341;47.606;7.576;2023-01-09T01:52:55;1.27;;;0.98;;
10586;SDS011;5341;47.606;7.576;2023-01-09T01:55:27;1.38;;;0.70;;
10586;SDS011;5341;47.606;7.576;2023-01-09T01:57:57;1.90;;;0.80;;
10586;SDS011;5341;47.606;7.576;2023-01-09T02:00:33;1.08;;;0.80;;
10586;SDS011;5341;47.606;7.576;2023-01-09T02:03:03;1.90;;;0.95;;
10586;SDS011;5341;47.606;7.576;2023-01-09T02:05:36;1.25;;;0.98;;
10586;SDS011;5341;47.606;7.576;2023-01-09T02:08:05;2.38;;;1.13;;
10586;SDS011;5341;47.606;7.576;2023-01-09T02:10:35;1.67;;;0.73;;
10586;SDS011;5341;47.606;7.576;2023-01-09T02:13:04;0.50;;;0.50;;
10586;SDS011;5341;47.606;7.576;2023-01-09T02:15:34;0.68;;;0.60;;
10586;SDS011;5341;47.606;7.576;2023-01-09T02:18:18;1.42;;;1.05;;
10586;SDS011;5341;47.606;7.576;2023-01-09T02:20:56;0.80;;;0.80;;
10586;SDS011;5341;47.606;7.576;2023-01-09T02:23:39;2.03;;;0.80;;
10586;SDS011;5341;47.606;7.576;2023-01-09T02:26:48;1.30;;;1.10;;
10586;SDS011;5341;47.606;7.576;2023-01-09T02:29:40;0.98;;;0.90;;
10586;SDS011;5341;47.606;7.576;2023-01-09T02:32:17;2.75;;;1.05;;
10586;SDS011;5341;47.606;7.576;2023-01-09T02:34:55;1.08;;;0.98;;
10586;SDS011;5341;47.606;7.576;2023-01-09T02:37:35;1.60;;;1.10;;
10586;SDS011;5341;47.606;7.576;2023-01-09T02:40:12;1.13;;;1.02;;
10586;SDS011;5341;47.606;7.576;2023-01-09T02:42:47;0.80;;;0.80;;
10586;SDS011;5341;47.606;7.576;2023-01-09T02:45:16;1.70;;;1.08;;
10586;SDS011;5341;47.606;7.576;2023-01-09T02:47:45;2.10;;;1.00;;
10586;SDS011;5341;47.606;7.576;2023-01-09T02:50:15;1.90;;;0.80;;
10586;SDS011;5341;47.606;7.576;2023-01-09T02:52:57;2.90;;;1.05;;
10586;SDS011;5341;47.606;7.576;2023-01-09T02:56:08;1.70;;;0.98;;
10586;SDS011;5341;47.606;7.576;2023-01-09T02:58:51;2.22;;;1.00;;
10586;SDS011;5341;47.606;7.576;2023-01-09T03:01:46;1.10;;;0.98;;
10586;SDS011;5341;47.606;7.576;2023-01-09T03:04:29;1.10;;;0.70;;
10586;SDS011;5341;47.606;7.576;2023-01-09T03:07:08;0.98;;;0.90;;
10586;SDS011;5341;47.606;7.576;2023-01-09T03:09:41;1.10;;;0.77;;
10586;SDS011;5341;47.606;7.576;2023-01-09T03:12:13;2.65;;;0.93;;
10586;SDS011;5341;47.606;7.576;2023-01-09T03:14:44;2.60;;;0.90;;
10586;SDS011;5341;47.606;7.576;2023-01-09T03:17:18;0.68;;;0.68;;
10586;SDS011;5341;47.606;7.576;2023-01-09T03:19:51;0.88;;;0.82;;
10586;SDS011;5341;47.606;7.576;2023-01-09T03:22:20;0.80;;;0.80;;
10586;SDS011;5341;47.606;7.576;2023-01-09T03:24:48;0.77;;;0.77;;
10586;SDS011;5341;47.606;7.576;2023-01-09T03:27:16;0.80;;;0.80;;
10586;SDS011;5341;47.606;7.576;2023-01-09T03:29:44;1.98;;;0.82;;
10586;SDS011;5341;47.606;7.576;2023-01-09T03:32:12;1.42;;;0.88;;
10586;SDS011;5341;47.606;7.576;2023-01-09T03:34:40;0.80;;;0.80;;
10586;SDS011;5341;47.606;7.576;2023-01-09T03:37:09;0.70;;;0.70;;
10586;SDS011;5341;47.606;7.576;2023-01-09T03:39:37;0.88;;;0.85;;
10586;SDS011;5341;47.606;7.576;2023-01-09T03:42:05;0.93;;;0.90;;
10586;SDS011;5341;47.606;7.576;2023-01-09T03:44:34;0.88;;;0.77;;
10586;SDS011;5341;47.606;7.576;2023-01-09T03:47:02;0.88;;;0.88;;
10586;SDS011;5341;47.606;7.576;2023-01-09T03:49:29;2.17;;;0.90;;
10586;SDS011;5341;47.606;7.576;2023-01-09T03:51:57;2.40;;;0.80;;
10586;SDS011;5341;47.606;7.576;2023-01-09T03:54:27;2.03;;;0.80;;
10586;SDS011;5341;47.606;7.576;2023-01-09T03:56:55;0.93;;;0.80;;
10586;SDS011;5341;47.606;7.576;2023-01-09T03:59:22;1.63;;;0.90;;
10586;SDS011;5341;47.606;7.576;2023-01-09T04:01:50;1.17;;;0.88;;
10586;SDS011;5341;47.606;7.576;2023-01-09T04:04:18;1.10;;;0.90;;
10586;SDS011;5341;47.606;7.576;2023-01-09T04:06:46;1.90;;;0.80;;
10586;SDS011;5341;47.606;7.576;2023-01-09T04:09:15;1.70;;;0.73;;
10586;SDS011;5341;47.606;7.576;2023-01-09T04:11:46;1.52;;;0.90;;
10586;SDS011;5341;47.606;7.576;2023-01-09T04:14:17;4.03;;;1.00;;
10586;SDS011;5341;47.606;7.576;2023-01-09T04:16:47;2.35;;;1.00;;
10586;SDS011;5341;47.606;7.576;2023-01-09T04:19:15;2.47;;;0.95;;
10586;SDS011;5341;47.606;7.576;2023-01-09T04:21:44;3.53;;;1.20;;
10586;SDS011;5341;47.606;7.576;2023-01-09T04:24:12;1.17;;;0.98;;
10586;SDS011;5341;47.606;7.576;2023-01-09T04:26:40;1.85;;;0.80;;
10586;SDS011;5341;47.606;7.576;2023-01-09T04:29:09;3.40;;;1.00;;
10586;SDS011;5341;47.606;7.576;2023-01-09T04:31:37;1.23;;;1.00;;
10586;SDS011;5341;47.606;7.576;2023-01-09T04:34:04;1.77;;;1.20;;
10586;SDS011;5341;47.606;7.576;2023-01-09T04:36:32;1.98;;;1.33;;
10586;SDS011;5341;47.606;7.576;2023-01-09T04:39:01;2.20;;;1.20;;
10586;SDS011;5341;47.606;7.576;2023-01-09T04:41:28;2.42;;;1.10;;
10586;SDS011;5341;47.606;7.576;2023-01-09T04:44:15;1.90;;;0.82;;
10586;SDS011;5341;47.606;7.576;2023-01-09T04:46:43;4.10;;;1.10;;
10586;SDS011;5341;47.606;7.576;2023-01-09T04:49:11;1.23;;;0.90;;
10586;SDS011;5341;47.606;7.576;2023-01-09T04:51:38;2.90;;;1.05;;
10586;SDS011;5341;47.606;7.576;2023-01-09T04:54:06;2.30;;;1.20;;
10586;SDS011;5341;47.606;7.576;2023-01-09T04:56:34;1.58;;;1.00;;
10586;SDS011;5341;47.606;7.576;2023-01-09T04:59:02;3.58;;;1.45;;
10586;SDS011;5341;47.606;7.576;2023-01-09T05:01:32;2.80;;;1.10;;
10586;SDS011;5341;47.606;7.576;2023-01-09T05:04:00;2.25;;;1.15;;
10586;SDS011;5341;47.606;7.576;2023-01-09T05:06:32;2.30;;;1.00;;
10586;SDS011;5341;47.606;7.576;2023-01-09T05:09:18;3.70;;;1.10;;
10586;SDS011;5341;47.606;7.576;2023-01-09T05:11:46;2.78;;;1.20;;
10586;SDS011;5341;47.606;7.576;2023-01-09T05:14:15;3.28;;;1.13;;
10586;SDS011;5341;47.606;7.576;2023-01-09T05:16:44;2.08;;;1.25;;
10586;SDS011;5341;47.606;7.576;2023-01-09T05:19:12;3.47;;;1.60;;
10586;SDS011;5341;47.606;7.576;2023-01-09T05:21:40;2.67;;;1.15;;
10586;SDS011;5341;47.606;7.576;2023-01-09T05:24:08;1.48;;;1.10;;
10586;SDS011;5341;47.606;7.576;2023-01-09T05:26:35;2.22;;;1.30;;
10586;SDS011;5341;47.606;7.576;2023-01-09T05:29:03;2.47;;;1.27;;
10586;SDS011;5341;47.606;7.576;2023-01-09T05:31:31;1.20;;;1.10;;
10586;SDS011;5341;47.606;7.576;2023-01-09T05:34:00;1.58;;;1.05;;
10586;SDS011;5341;47.606;7.576;2023-01-09T05:36:28;3.75;;;1.17;;
10586;SDS011;5341;47.606;7.576;2023-01-09T05:38:55;1.38;;;1.05;;
10586;SDS011;5341;47.606;7.576;2023-01-09T05:41:23;3.75;;;1.38;;
10586;SDS011;5341;47.606;7.576;2023-01-09T05:43:53;3.53;;;1.20;;
10586;SDS011;5341;47.606;7.576;2023-01-09T05:46:20;3.97;;;1.20;;
10586;SDS011;5341;47.606;7.576;2023-01-09T05:48:48;2.65;;;1.50;;
10586;SDS011;5341;47.606;7.576;2023-01-09T05:51:17;2.30;;;1.20;;
10586;SDS011;5341;47.606;7.576;2023-01-09T05:53:46;4.35;;;1.20;;
10586;SDS011;5341;47.606;7.576;2023-01-09T05:56:16;2.50;;;0.90;;
10586;SDS011;5341;47.606;7.576;2023-01-09T05:58:46;2.85;;;1.30;;
10586;SDS011;5341;47.606;7.576;2023-01-09T06:01:15;3.25;;;1.15;;
10586;SDS011;5341;47.606;7.576;2023-01-09T06:03:46;1.45;;;1.10;;
10586;SDS011;5341;47.606;7.576;2023-01-09T06:06:14;2.15;;;1.50;;
10586;SDS011;5341;47.606;7.576;2023-01-09T06:08:45;3.35;;;1.38;;
10586;SDS011;5341;47.606;7.576;2023-01-09T06:11:13;5.20;;;1.52;;
10586;SDS011;5341;47.606;7.576;2023-01-09T06:13:41;1.73;;;1.50;;
10586;SDS011;5341;47.606;7.576;2023-01-09T06:16:11;2.15;;;1.50;;
10586;SDS011;5341;47.606;7.576;2023-01-09T06:18:39;4.05;;;1.40;;
10586;SDS011;5341;47.606;7.576;2023-01-09T06:21:07;2.63;;;1.13;;
10586;SDS011;5341;47.606;7.576;2023-01-09T06:23:35;2.67;;;1.20;;
10586;SDS011;5341;47.606;7.576;2023-01-09T06:26:04;2.08;;;1.20;;
10586;SDS011;5341;47.606;7.576;2023-01-09T06:28:32;1.90;;;1.17;;
10586;SDS011;5341;47.606;7.576;2023-01-09T06:31:00;5.10;;;1.38;;
10586;SDS011;5341;47.606;7.576;2023-01-09T06:33:28;2.53;;;1.48;;
10586;SDS011;5341;47.606;7.576;2023-01-09T06:35:56;4.70;;;1.38;;
10586;SDS011;5341;47.606;7.576;2023-01-09T06:38:24;3.95;;;1.45;;
10586;SDS011;5341;47.606;7.576;2023-01-09T06:40:52;2.67;;;1.48;;
10586;SDS011;5341;47.606;7.576;2023-01-09T06:43:25;3.90;;;1.33;;
10586;SDS011;5341;47.606;7.576;2023-01-09T06:45:55;2.28;;;1.20;;
10586;SDS011;5341;47.606;7.576;2023-01-09T06:48:22;3.28;;;1.52;;
10586;SDS011;5341;47.606;7.576;2023-01-09T06:50:50;4.22;;;1.40;;
10586;SDS011;5341;47.606;7.576;2023-01-09T06:53:19;3.70;;;1.60;;
10586;SDS011;5341;47.606;7.576;2023-01-09T06:55:47;4.28;;;1.40;;
10586;SDS011;5341;47.606;7.576;2023-01-09T06:58:16;3.90;;;1.55;;
10586;SDS011;5341;47.606;7.576;2023-01-09T07:00:48;3.17;;;1.50;;
10586;SDS011;5341;47.606;7.576;2023-01-09T07:03:19;4.50;;;1.60;;
10586;SDS011;5341;47.606;7.576;2023-01-09T07:05:47;2.38;;;1.40;;
10586;SDS011;5341;47.606;7.576;2023-01-09T07:08:16;2.25;;;1.38;;
10586;SDS011;5341;47.606;7.576;2023-01-09T07:10:45;5.25;;;1.40;;
10586;SDS011;5341;47.606;7.576;2023-01-09T07:13:13;4.28;;;1.38;;
10586;SDS011;5341;47.606;7.576;2023-01-09T07:15:40;6.40;;;1.42;;
10586;SDS011;5341;47.606;7.576;2023-01-09T07:18:12;3.05;;;1.58;;
10586;SDS011;5341;47.606;7.576;2023-01-09T07:20:40;3.30;;;1.48;;
10586;SDS011;5341;47.606;7.576;2023-01-09T07:23:09;4.35;;;1.85;;
10586;SDS011;5341;47.606;7.576;2023-01-09T07:25:38;5.38;;;1.67;;
10586;SDS011;5341;47.606;7.576;2023-01-09T07:28:07;6.43;;;1.80;;
10586;SDS011;5341;47.606;7.576;2023-01-09T07:30:35;5.40;;;1.75;;
10586;SDS011;5341;47.606;7.576;2023-01-09T07:33:07;4.32;;;1.98;;
10586;SDS011;5341;47.606;7.576;2023-01-09T07:35:36;3.42;;;1.80;;
10586;SDS011;5341;47.606;7.576;2023-01-09T07:38:04;4.05;;;1.80;;
10586;SDS011;5341;47.606;7.576;2023-01-09T07:40:32;3.55;;;1.60;;
10586;SDS011;5341;47.606;7.576;2023-01-09T07:43:00;3.15;;;1.83;;
10586;SDS011;5341;47.606;7.576;2023-01-09T07:45:28;2.47;;;1.60;;
10586;SDS011;5341;47.606;7.576;2023-01-09T07:47:56;2.75;;;1.48;;
10586;SDS011;5341;47.606;7.576;2023-01-09T07:50:24;3.95;;;1.67;;
10586;SDS011;5341;47.606;7.576;2023-01-09T07:52:53;3.35;;;1.77;;
10586;SDS011;5341;47.606;7.576;2023-01-09T07:55:21;3.88;;;1.65;;
10586;SDS011;5341;47.606;7.576;2023-01-09T07:57:48;4.70;;;1.75;;
10586;SDS011;5341;47.606;7.576;2023-01-09T08:00:17;3.83;;;2.15;;
10586;SDS011;5341;47.606;7.576;2023-01-09T08:02:49;5.07;;;2.00;;
10586;SDS011;5341;47.606;7.576;2023-01-09T08:05:18;4.20;;;2.03;;
10586;SDS011;5341;47.606;7.576;2023-01-09T08:07:46;4.90;;;2.05;;
10586;SDS011;5341;47.606;7.576;2023-01-09T08:10:16;4.70;;;2.08;;
10586;SDS011;5341;47.606;7.576;2023-01-09T08:12:45;5.40;;;1.92;;
10586;SDS011;5341;47.606;7.576;2023-01-09T08:15:16;5.82;;;1.98;;
10586;SDS011;5341;47.606;7.576;2023-01-09T08:17:44;3.67;;;1.60;;
10586;SDS011;5341;47.606;7.576;2023-01-09T08:20:13;4.30;;;1.80;;
10586;SDS011;5341;47.606;7.576;2023-01-09T08:22:42;6.65;;;1.95;;
10586;SDS011;5341;47.606;7.576;2023-01-09T08:25:14;2.60;;;1.52;;
10586;SDS011;5341;47.606;7.576;2023-01-09T08:27:43;5.28;;;1.85;;
10586;SDS011;5341;47.606;7.576;2023-01-09T08:30:11;3.85;;;1.98;;
10586;SDS011;5341;47.606;7.576;2023-01-09T08:32:40;5.90;;;2.03;;
10586;SDS011;5341;47.606;7.576;2023-01-09T08:35:11;3.97;;;1.50;;
10586;SDS011;5341;47.606;7.576;2023-01-09T08:37:41;4.95;;;1.52;;
10586;SDS011;5341;47.606;7.576;2023-01-09T08:40:10;4.45;;;1.60;;
10586;SDS011;5341;47.606;7.576;2023-01-09T08:42:38;6.55;;;1.75;;
10586;SDS011;5341;47.606;7.576;2023-01-09T08:45:26;5.15;;;1.77;;
10586;SDS011;5341;47.606;7.576;2023-01-09T08:48:19;7.15;;;2.00;;
10586;SDS011;5341;47.606;7.576;2023-01-09T08:50:47;5.07;;;1.60;;
10586;SDS011;5341;47.606;7.576;2023-01-09T08:53:15;4.07;;;1.70;;
10586;SDS011;5341;47.606;7.576;2023-01-09T08:55:42;3.53;;;1.63;;
10586;SDS011;5341;47.606;7.576;2023-01-09T08:58:11;7.68;;;2.33;;
10586;SDS011;5341;47.606;7.576;2023-01-09T09:00:48;3.40;;;1.42;;
10586;SDS011;5341;47.606;7.576;2023-01-09T09:03:18;4.82;;;1.88;;
10586;SDS011;5341;47.606;7.576;2023-01-09T09:05:46;6.40;;;1.85;;
10586;SDS011;5341;47.606;7.576;2023-01-09T09:08:18;5.22;;;2.00;;
10586;SDS011;5341;47.606;7.576;2023-01-09T09:10:47;5.47;;;1.58;;
10586;SDS011;5341;47.606;7.576;2023-01-09T09:13:16;4.20;;;1.92;;
10586;SDS011;5341;47.606;7.576;2023-01-09T09:15:43;5.05;;;1.83;;
10586;SDS011;5341;47.606;7.576;2023-01-09T09:18:14;3.78;;;1.60;;
10586;SDS011;5341;47.606;7.576;2023-01-09T09:20:44;7.30;;;2.00;;
10586;SDS011;5341;47.606;7.576;2023-01-09T09:23:15;8.50;;;1.65;;
10586;SDS011;5341;47.606;7.576;2023-01-09T09:25:45;3.50;;;1.45;;
10586;SDS011;5341;47.606;7.576;2023-01-09T09:28:13;6.20;;;2.10;;
10586;SDS011;5341;47.606;7.576;2023-01-09T09:30:45;3.85;;;1.50;;
10586;SDS011;5341;47.606;7.576;2023-01-09T09:33:19;4.05;;;1.73;;
10586;SDS011;5341;47.606;7.576;2023-01-09T09:35:50;4.97;;;1.75;;
10586;SDS011;5341;47.606;7.576;2023-01-09T09:38:22;3.90;;;1.75;;
10586;SDS011;5341;47.606;7.576;2023-01-09T09:40:56;3.90;;;1.73;;
10586;SDS011;5341;47.606;7.576;2023-01-09T09:44:05;4.07;;;1.80;;
10586;SDS011;5341;47.606;7.576;2023-01-09T09:47:02;7.18;;;1.67;;
10586;SDS011;5341;47.606;7.576;2023-01-09T09:49:38;4.65;;;1.80;;
10586;SDS011;5341;47.606;7.576;2023-01-09T09:52:18;7.80;;;2.10;;
10586;SDS011;5341;47.606;7.576;2023-01-09T09:54:58;5.03;;;1.90;;
10586;SDS011;5341;47.606;7.576;2023-01-09T09:57:35;5.50;;;1.90;;
10586;SDS011;5341;47.606;7.576;2023-01-09T10:00:05;4.97;;;2.17;;
10586;SDS011;5341;47.606;7.576;2023-01-09T10:02:41;6.88;;;1.95;;
10586;SDS011;5341;47.606;7.576;2023-01-09T10:05:18;4.00;;;1.80;;
10586;SDS011;5341;47.606;7.576;2023-01-09T10:07:53;3.33;;;1.90;;
10586;SDS011;5341;47.606;7.576;2023-01-09T10:10:28;5.18;;;1.80;;
10586;SDS011;5341;47.606;7.576;2023-01-09T10:13:02;5.70;;;2.15;;
10586;SDS011;5341;47.606;7.576;2023-01-09T10:15:45;16.63;;;7.10;;
10586;SDS011;5341;47.606;7.576;2023-01-09T10:18:24;9.45;;;3.72;;
10586;SDS011;5341;47.606;7.576;2023-01-09T10:21:13;6.60;;;2.95;;
10586;SDS011;5341;47.606;7.576;2023-01-09T10:24:02;5.63;;;2.67;;
10586;SDS011;5341;47.606;7.576;2023-01-09T10:26:45;4.88;;;2.17;;
10586;SDS011;5341;47.606;7.576;2023-01-09T10:29:24;5.47;;;1.95;;
10586;SDS011;5341;47.606;7.576;2023-01-09T10:32:19;6.47;;;1.83;;
10586;SDS011;5341;47.606;7.576;2023-01-09T10:35:26;5.90;;;1.65;;
10586;SDS011;5341;47.606;7.576;2023-01-09T10:38:10;2.85;;;1.42;;
10586;SDS011;5341;47.606;7.576;2023-01-09T10:40:45;3.92;;;1.10;;
10586;SDS011;5341;47.606;7.576;2023-01-09T10:43:20;1.85;;;1.05;;
10586;SDS011;5341;47.606;7.576;2023-01-09T10:46:00;2.30;;;1.17;;
10586;SDS011;5341;47.606;7.576;2023-01-09T10:48:33;1.10;;;1.00;;
10586;SDS011;5341;47.606;7.576;2023-01-09T10:51:11;1.30;;;1.00;;
10586;SDS011;5341;47.606;7.576;2023-01-09T10:53:46;1.55;;;0.98;;
10586;SDS011;5341;47.606;7.576;2023-01-09T10:56:27;2.03;;;1.08;;
10586;SDS011;5341;47.606;7.576;2023-01-09T10:58:58;1.33;;;1.00;;
10586;SDS011;5341;47.606;7.576;2023-01-09T11:01:26;1.65;;;1.00;;
10586;SDS011;5341;47.606;7.576;2023-01-09T11:03:56;1.40;;;1.10;;
10586;SDS011;5341;47.606;7.576;2023-01-09T11:06:27;2.28;;;1.15;;
10586;SDS011;5341;47.606;7.576;2023-01-09T11:09:04;4.38;;;2.40;;
10586;SDS011;5341;47.606;7.576;2023-01-09T11:11:32;5.28;;;2.90;;
10586;SDS011;5341;47.606;7.576;2023-01-09T11:14:06;4.32;;;2.50;;
10586;SDS011;5341;47.606;7.576;2023-01-09T11:16:52;3.53;;;2.08;;
10586;SDS011;5341;47.606;7.576;2023-01-09T11:19:22;3.90;;;2.10;;
10586;SDS011;5341;47.606;7.576;2023-01-09T11:21:50;4.60;;;2.03;;
10586;SDS011;5341;47.606;7.576;2023-01-09T11:24:34;2.22;;;1.33;;
10586;SDS011;5341;47.606;7.576;2023-01-09T11:30:06;2.65;;;1.20;;
10586;SDS011;5341;47.606;7.576;2023-01-09T11:32:41;4.38;;;1.40;;
10586;SDS011;5341;47.606;7.576;2023-01-09T11:35:18;2.22;;;1.33;;
10586;SDS011;5341;47.606;7.576;2023-01-09T11:37:56;2.05;;;1.40;;
10586;SDS011;5341;47.606;7.576;2023-01-09T11:40:34;3.05;;;1.30;;
10586;SDS011;5341;47.606;7.576;2023-01-09T11:43:12;3.10;;;1.40;;
10586;SDS011;5341;47.606;7.576;2023-01-09T11:45:43;2.38;;;1.25;;
10586;SDS011;5341;47.606;7.576;2023-01-09T11:48:15;3.75;;;1.40;;
10586;SDS011;5341;47.606;7.576;2023-01-09T11:50:52;3.10;;;1.45;;
10586;SDS011;5341;47.606;7.576;2023-01-09T11:53:21;3.90;;;1.20;;
10586;SDS011;5341;47.606;7.576;2023-01-09T11:55:52;4.07;;;1.52;;
10586;SDS011;5341;47.606;7.576;2023-01-09T11:58:27;3.33;;;1.48;;
10586;SDS011;5341;47.606;7.576;2023-01-09T12:01:03;7.30;;;2.00;;
10586;SDS011;5341;47.606;7.576;2023-01-09T12:03:47;3.78;;;1.60;;
10586;SDS011;5341;47.606;7.576;2023-01-09T12:06:27;3.65;;;1.70;;
10586;SDS011;5341;47.606;7.576;2023-01-09T12:09:03;5.75;;;1.55;;
10586;SDS011;5341;47.606;7.576;2023-01-09T12:11:37;3.25;;;1.40;;
10586;SDS011;5341;47.606;7.576;2023-01-09T12:17:13;2.63;;;1.40;;
10586;SDS011;5341;47.606;7.576;2023-01-09T12:20:01;3.92;;;1.58;;
10586;SDS011;5341;47.606;7.576;2023-01-09T12:22:43;5.63;;;1.73;;
10586;SDS011;5341;47.606;7.576;2023-01-09T12:25:23;5.75;;;1.73;;
10586;SDS011;5341;47.606;7.576;2023-01-09T12:28:07;4.53;;;1.60;;
10586;SDS011;5341;47.606;7.576;2023-01-09T12:30:57;6.88;;;1.77;;
10586;SDS011;5341;47.606;7.576;2023-01-09T12:33:37;5.57;;;1.73;;
10586;SDS011;5341;47.606;7.576;2023-01-09T12:36:13;3.90;;;1.50;;
10586;SDS011;5341;47.606;7.576;2023-01-09T12:38:51;5.10;;;1.60;;
10586;SDS011;5341;47.606;7.576;2023-01-09T12:41:31;4.57;;;1.58;;
10586;SDS011;5341;47.606;7.576;2023-01-09T12:44:17;3.78;;;1.60;;
10586;SDS011;5341;47.606;7.576;2023-01-09T12:46:58;4.18;;;1.90;;
10586;SDS011;5341;47.606;7.576;2023-01-09T12:49:33;7.88;;;1.65;;
10586;SDS011;5341;47.606;7.576;2023-01-09T12:52:04;6.22;;;1.67;;
10586;SDS011;5341;47.606;7.576;2023-01-09T12:54:39;4.07;;;1.70;;
10586;SDS011;5341;47.606;7.576;2023-01-09T12:57:13;4.22;;;1.60;;
10586;SDS011;5341;47.606;7.576;2023-01-09T12:59:51;3.20;;;1.50;;
10586;SDS011;5341;47.606;7.576;2023-01-09T13:02:30;4.50;;;1.85;;
10586;SDS011;5341;47.606;7.576;2023-01-09T13:05:06;4.82;;;2.15;;
10586;SDS011;5341;47.606;7.576;2023-01-09T13:07:45;3.13;;;1.63;;
10586;SDS011;5341;47.606;7.576;2023-01-09T13:10:18;4.20;;;2.15;;
10586;SDS011;5341;47.606;7.576;2023-01-09T13:12:49;6.07;;;3.08;;
10586;SDS011;5341;47.606;7.576;2023-01-09T13:15:23;5.82;;;2.70;;
10586;SDS011;5341;47.606;7.576;2023-01-09T13:17:58;8.07;;;2.70;;
10586;SDS011;5341;47.606;7.576;2023-01-09T13:20:34;8.85;;;3.60;;
10586;SDS011;5341;47.606;7.576;2023-01-09T13:23:08;7.47;;;3.25;;
10586;SDS011;5341;47.606;7.576;2023-01-09T13:25:41;8.15;;;3.50;;
10586;SDS011;5341;47.606;7.576;2023-01-09T13:28:14;6.85;;;2.90;;
10586;SDS011;5341;47.606;7.576;2023-01-09T13:30:50;8.40;;;4.68;;
10586;SDS011;5341;47.606;7.576;2023-01-09T13:33:37;5.63;;;3.13;;
10586;SDS011;5341;47.606;7.576;2023-01-09T13:36:18;5.25;;;2.33;;
10586;SDS011;5341;47.606;7.576;2023-01-09T13:39:00;6.70;;;2.80;;
10586;SDS011;5341;47.606;7.576;2023-01-09T13:41:29;7.38;;;2.38;;
10586;SDS011;5341;47.606;7.576;2023-01-09T13:44:29;5.05;;;2.30;;
10586;SDS011;5341;47.606;7.576;2023-01-09T13:46:59;5.07;;;2.20;;
10586;SDS011;5341;47.606;7.576;2023-01-09T13:52:28;4.97;;;1.90;;
10586;SDS011;5341;47.606;7.576;2023-01-09T13:55:03;4.45;;;1.95;;
10586;SDS011;5341;47.606;7.576;2023-01-09T14:00:47;6.47;;;2.20;;
10586;SDS011;5341;47.606;7.576;2023-01-09T14:03:20;5.10;;;2.05;;
10586;SDS011;5341;47.606;7.576;2023-01-09T14:09:03;4.88;;;1.80;;
10586;SDS011;5341;47.606;7.576;2023-01-09T14:11:38;5.93;;;2.05;;
10586;SDS011;5341;47.606;7.576;2023-01-09T14:16:57;4.03;;;1.90;;
10586;SDS011;5341;47.606;7.576;2023-01-09T14:19:33;6.32;;;2.20;;
10586;SDS011;5341;47.606;7.576;2023-01-09T14:22:03;6.05;;;1.90;;
10586;SDS011;5341;47.606;7.576;2023-01-09T14:24:32;3.97;;;1.70;;
10586;SDS011;5341;47.606;7.576;2023-01-09T14:27:45;3.13;;;1.65;;
10586;SDS011;5341;47.606;7.576;2023-01-09T14:30:33;3.38;;;1.40;;
10586;SDS011;5341;47.606;7.576;2023-01-09T14:33:03;3.70;;;1.58;;
10586;SDS011;5341;47.606;7.576;2023-01-09T14:35:57;2.75;;;1.40;;
10586;SDS011;5341;47.606;7.576;2023-01-09T14:38:31;2.95;;;1.40;;
10586;SDS011;5341;47.606;7.576;2023-01-09T14:41:03;2.15;;;1.33;;
10586;SDS011;5341;47.606;7.576;2023-01-09T14:43:51;2.65;;;1.08;;
10586;SDS011;5341;47.606;7.576;2023-01-09T14:46:23;3.15;;;1.20;;
10586;SDS011;5341;47.606;7.576;2023-01-09T14:48:56;2.28;;;1.00;;
10586;SDS011;5341;47.606;7.576;2023-01-09T14:51:28;3.97;;;1.45;;
10586;SDS011;5341;47.606;7.576;2023-01-09T14:54:03;1.88;;;1.00;;
10586;SDS011;5341;47.606;7.576;2023-01-09T14:56:44;3.75;;;1.80;;
10586;SDS011;5341;47.606;7.576;2023-01-09T14:59:19;4.78;;;2.35;;
10586;SDS011;5341;47.606;7.576;2023-01-09T15:01:47;3.28;;;2.42;;
10586;SDS011;5341;47.606;7.576;2023-01-09T15:04:21;3.28;;;2.28;;
10586;SDS011;5341;47.606;7.576;2023-01-09T15:07:03;3.90;;;2.10;;
10586;SDS011;5341;47.606;7.576;2023-01-09T15:09:35;2.60;;;1.88;;
10586;SDS011;5341;47.606;7.576;2023-01-09T15:12:12;2.60;;;1.63;;
10586;SDS011;5341;47.606;7.576;2023-01-09T15:14:48;2.95;;;1.88;;
10586;SDS011;5341;47.606;7.576;2023-01-09T15:17:20;6.13;;;3.33;;
10586;SDS011;5341;47.606;7.576;2023-01-09T15:19:50;10.63;;;5.40;;
10586;SDS011;5341;47.606;7.576;2023-01-09T15:22:26;17.85;;;7.35;;
10586;SDS011;5341;47.606;7.576;2023-01-09T15:24:55;20.15;;;8.73;;
10586;SDS011;5341;47.606;7.576;2023-01-09T15:27:23;17.15;;;7.82;;
10586;SDS011;5341;47.606;7.576;2023-01-09T15:29:51;15.30;;;7.07;;
10586;SDS011;5341;47.606;7.576;2023-01-09T15:32:21;12.63;;;5.43;;
10586;SDS011;5341;47.606;7.576;2023-01-09T15:34:55;12.05;;;4.72;;
10586;SDS011;5341;47.606;7.576;2023-01-09T15:37:28;9.82;;;4.88;;
10586;SDS011;5341;47.606;7.576;2023-01-09T15:40:02;7.55;;;3.90;;
10586;SDS011;5341;47.606;7.576;2023-01-09T15:42:33;6.25;;;3.80;;
10586;SDS011;5341;47.606;7.576;2023-01-09T15:45:23;6.03;;;3.17;;
10586;SDS011;5341;47.606;7.576;2023-01-09T15:47:53;5.20;;;3.13;;
10586;SDS011;5341;47.606;7.576;2023-01-09T15:50:41;6.93;;;3.50;;
10586;SDS011;5341;47.606;7.576;2023-01-09T15:53:12;4.70;;;2.70;;